1890 Major Hurricane NOT_NAMED (1890237N13311)


IBTrACS version v04r00. Visit IBTrACS website for data access.
Please direct all questions to the IBTrACS Q and A forum

Storm track - Intensity - Wind Radii - Intensity Data - Source Data - All data

Summary Information

Storm ID 1890237N13311
Start Aug 24 12Z
Max Intensity 120 kt (Aug 29 06Z), 948 mb (Aug 29 06Z)
End Sep 3 12Z
ATCF IDs ,AL031890
Track status Best track data.

Storm track plot

Map of storm track

Intensity plots

Map of storm track

Radial wind information

No radial wind information for this storm


Position and Intensity Table

BASIN ISO_TIME_________ NATURE LAT LON WMO WIND USA WIND MLC WIND MLC PRES
degrees north degrees east kts kts kts mb
NA 1890-08-24 12:00:00 TS 12.50 -48.70 35
NA 15:00:00 TS 12.70 -49.03 37
NA 18:00:00 TS 12.90 -49.40 40
NA 21:00:00 TS 13.10 -49.84 42
NA 1890-08-25 00:00:00 TS 13.30 -50.30 45
NA 03:00:00 TS 13.51 -50.74 47
NA 06:00:00 TS 13.70 -51.20 50
NA 09:00:00 TS 13.85 -51.74 52
NA 12:00:00 TS 14.00 -52.30 55
NA 15:00:00 TS 14.19 -52.82 57
NA 18:00:00 TS 14.40 -53.30 60
NA 21:00:00 TS 14.58 -53.76 62
NA 1890-08-26 00:00:00 TS 14.80 -54.20 65
NA 03:00:00 TS 15.09 -54.65 70
NA 06:00:00 TS 15.40 -55.10 75
NA 09:00:00 TS 15.65 -55.56 80
NA 12:00:00 TS 16.13 -55.43 85 85 85
NA 15:00:00 TS 16.57 -55.70 87 87
NA 18:00:00 TS 16.98 -56.14 90 90 90
NA 21:00:00 TS 17.35 -56.66 92 92
NA 1890-08-27 00:00:00 TS 17.67 -57.23 95 95 95
NA 03:00:00 TS 17.96 -57.80 97 97
NA 06:00:00 TS 18.27 -58.37 100 100 100
NA 09:00:00 TS 18.59 -58.94 102 102
NA 12:00:00 TS 18.93 -59.53 105 105 105
NA 15:00:00 TS 19.31 -60.19 105 105
NA 18:00:00 TS 19.70 -60.87 105 105 105
NA 21:00:00 TS 20.10 -61.52 105 105
NA 1890-08-28 00:00:00 TS 20.50 -62.13 105 105 105
NA 03:00:00 TS 20.85 -62.67 105 105
NA 06:00:00 TS 21.20 -63.20 105 105 105 965
NA 09:00:00 TS 21.59 -63.79 105 105
NA 12:00:00 TS 22.00 -64.40 105 105 105
NA 15:00:00 TS 22.41 -65.01 105 105
NA 18:00:00 TS 22.87 -65.63 105 105 105
NA 21:00:00 TS 23.38 -66.23 102 102
NA 1890-08-29 00:00:00 TS 23.93 -66.87 100 100 100
NA 03:00:00 TS 24.46 -67.66 97 110
NA 06:00:00 TS 25.00 -68.43 95 95 120 948
NA 09:00:00 TS 25.60 -69.06 92 120
NA 12:00:00 TS 26.20 -69.50 90 90 120
NA 15:00:00 TS 26.73 -69.75 87 120
NA 18:00:00 TS 27.23 -69.83 85 85 120
NA 21:00:00 TS 27.74 -69.85 85 120
NA 1890-08-30 00:00:00 TS 28.27 -69.77 85 85 120
NA 03:00:00 TS 28.81 -69.65 85 117
NA 06:00:00 TS 29.37 -69.47 85 85 115
NA 09:00:00 TS 29.90 -69.25 85 112
NA 12:00:00 TS 30.43 -68.97 85 85 110
NA 15:00:00 TS 30.99 -68.61 85 107
NA 18:00:00 TS 31.57 -68.17 85 85 105
NA 21:00:00 TS 32.11 -67.68 85 102
NA 1890-08-31 00:00:00 TS 32.70 -67.10 85 85 100
NA 03:00:00 TS 33.33 -66.46 85 97
NA 06:00:00 TS 34.10 -65.70 85 85 95
NA 09:00:00 TS 35.00 -64.85 85 95
NA 12:00:00 TS 36.10 -63.83 85 85 95
NA 15:00:00 TS 37.35 -62.65 85 95
NA 18:00:00 TS 38.77 -61.27 85 85 95
NA 21:00:00 TS 40.28 -59.66 85 95
NA 1890-09-01 00:00:00 TS 41.83 -57.97 85 85 95 968
NA 03:00:00 TS 43.32 -56.38 82 87
NA 06:00:00 TS 44.73 -54.80 80 80 80
NA 09:00:00 TS 46.07 -53.16 75 75
NA 12:00:00 TS 47.30 -51.47 70 70 70
NA 15:00:00 TS 48.39 -49.63 65 65
NA 18:00:00 TS 49.50 -47.83 60 60 60
NA 21:00:00 TS 50.83 -46.23 55 55
NA 1890-09-02 00:00:00 ET 52.20 -44.60 50 50 50
NA 03:00:00 ET 53.42 -42.62 50 50
NA 06:00:00 ET 54.60 -40.60 50 50 50
NA 09:00:00 ET 55.85 -38.74 50 50
NA 12:00:00 ET 57.00 -37.00 50 50 50
NA 15:00:00 ET 57.90 -35.34 50 50
NA 18:00:00 ET 58.70 -33.80 50 50 50
NA 21:00:00 ET 59.57 -32.26 50 50
NA 1890-09-03 00:00:00 ET 60.37 -30.80 50 50 50
NA 03:00:00 ET 60.98 -29.40 47 47
NA 06:00:00 ET 61.50 -28.10 45 45 45
NA 09:00:00 ET 62.00 -26.85 45 45
NA 12:00:00 ET 62.50 -25.60 45 45 45

Source Information

Agency Information
USA hurdat2-1851-2018-051019.txt:Line=6714:UNNAMED
TOKYO
CMA
HKO
NEWDELHI
REUNION
BOM
NADI
WELLINGTON
DS824
TD9636
TD9635
NEUMANN
MLC

All available IBTrACS Data

SEASON BASIN SUBBASIN ISO_TIME_________ NATURE LAT LON WMO WIND WMO AGENCY DIST2LAND LANDFALL IFLAG USA AGENCY USA ATCF_ID USA LAT USA LON USA STATUS USA WIND USA SSHS MLC LAT MLC LON MLC CLASS MLC WIND MLC PRES STORM SPEED STORM DIR
Year degrees north degrees east kts km km degrees north degrees east kts 1 degrees north degrees east kts mb kts degrees
1890 NA NA 1890-08-24 12:00:00 TS 12.50 -48.70 923 918 _____________O -1 12.50 -48.70 TS 35 8 302
1890 NA NA 15:00:00 TS 12.70 -49.03 928 923 _____________P -1 12.70 -49.03 TS 37 8 300
1890 NA NA 18:00:00 TS 12.90 -49.40 929 925 _____________O -1 12.90 -49.40 TS 40 9 297
1890 NA NA 21:00:00 TS 13.10 -49.84 933 927 _____________P -1 13.10 -49.84 TS 42 10 295
1890 NA NA 1890-08-25 00:00:00 TS 13.30 -50.30 932 927 _____________O -1 13.30 -50.30 TS 45 10 295
1890 NA NA 03:00:00 TS 13.51 -50.74 933 929 _____________P -1 13.51 -50.74 TS 47 10 295
1890 NA NA 06:00:00 TS 13.70 -51.20 933 926 _____________O -1 13.70 -51.20 TS 50 10 289
1890 NA NA 09:00:00 TS 13.85 -51.74 936 925 _____________P -1 13.85 -51.74 TS 52 11 286
1890 NA NA 12:00:00 TS 14.00 -52.30 930 928 _____________O -1 14.00 -52.30 TS 55 11 288
1890 NA NA 15:00:00 TS 14.19 -52.82 942 933 _____________P -1 14.19 -52.82 TS 57 11 292
1890 NA NA 18:00:00 TS 14.40 -53.30 933 899 _____________O -1 14.40 -53.30 TS 60 10 293
1890 NA NA 21:00:00 TS 14.58 -53.76 895 868 _____________P -1 14.58 -53.76 TS 62 10 295
1890 NA NA 1890-08-26 00:00:00 TS 14.80 -54.20 868 844 _____________O -1 14.80 -54.20 HU 65 10 300
1890 NA NA 03:00:00 TS 15.09 -54.65 851 828 _____________P -1 15.09 -54.65 HU 70 11 305
1890 NA NA 06:00:00 TS 15.40 -55.10 828 809 _____________O -1 15.40 -55.10 HU 75 10 302
1890 NA NA 09:00:00 TS 15.65 -55.56 801 801 _____________P -1 15.65 -55.56 HU 80 8 336
1890 NA NA 12:00:00 TS 16.13 -55.43 85 hurdat_atl 855 855 O____________O hurdat_atl AL031890 16.60 -54.30 HU 85 2 15.90 -56.00 HU 85 9 351
1890 NA NA 15:00:00 TS 16.57 -55.70 874 867 P____________P AL031890 16.95 -55.01 HU 87 2 16.20 -56.40 HU 87 11 321
1890 NA NA 18:00:00 TS 16.98 -56.14 90 hurdat_atl 881 874 O____________O hurdat_atl AL031890 17.30 -55.70 HU 90 2 16.50 -56.80 HU 90 12 311
1890 NA NA 21:00:00 TS 17.35 -56.66 881 874 P____________P AL031890 17.66 -56.36 HU 92 2 16.75 -57.25 HU 92 13 303
1890 NA NA 1890-08-27 00:00:00 TS 17.67 -57.23 95 hurdat_atl 884 825 O____________O hurdat_atl AL031890 18.00 -57.00 HU 95 2 17.00 -57.70 HU 95 13 299
1890 NA NA 03:00:00 TS 17.96 -57.80 824 771 P____________P AL031890 18.30 -57.65 HU 97 3 17.29 -58.10 HU 97 12 299
1890 NA NA 06:00:00 TS 18.27 -58.37 100 hurdat_atl 760 706 O____________O hurdat_atl AL031890 18.60 -58.30 HU 100 3 17.60 -58.50 MH 100 12 300
1890 NA NA 09:00:00 TS 18.59 -58.94 706 645 P____________P AL031890 18.94 -58.95 HU 102 3 17.88 -58.91 MH 102 13 301
1890 NA NA 12:00:00 TS 18.93 -59.53 105 hurdat_atl 645 577 O____________O hurdat_atl AL031890 19.30 -59.60 HU 105 3 18.20 -59.40 MH 105 14 301
1890 NA NA 15:00:00 TS 19.31 -60.19 577 522 P____________P AL031890 19.65 -60.26 HU 105 3 18.62 -60.06 MH 105 15 301
1890 NA NA 18:00:00 TS 19.70 -60.87 105 hurdat_atl 514 470 O____________O hurdat_atl AL031890 20.00 -60.90 HU 105 3 19.10 -60.80 MH 105 15 303
1890 NA NA 21:00:00 TS 20.10 -61.52 470 435 P____________P AL031890 20.36 -61.51 HU 105 3 19.60 -61.54 MH 105 14 304
1890 NA NA 1890-08-28 00:00:00 TS 20.50 -62.13 105 hurdat_atl 435 413 O____________O hurdat_atl AL031890 20.70 -62.10 HU 105 3 20.10 -62.20 MH 105 13 305
1890 NA NA 03:00:00 TS 20.85 -62.67 405 398 P____________P AL031890 21.00 -62.70 HU 105 3 20.55 -62.62 MH 105 12 305
1890 NA NA 06:00:00 TS 21.20 -63.20 105 hurdat_atl 401 394 O____________O hurdat_atl AL031890 21.30 -63.30 HU 105 3 21.00 -63.00 MH 105 965 13 305
1890 NA NA 09:00:00 TS 21.59 -63.79 404 399 P____________P AL031890 21.63 -63.90 HU 105 3 21.49 -63.56 MH 105 14 306
1890 NA NA 12:00:00 TS 22.00 -64.40 105 hurdat_atl 421 418 O____________O hurdat_atl AL031890 22.00 -64.50 HU 105 3 22.00 -64.20 MH 105 14 306
1890 NA NA 15:00:00 TS 22.41 -65.01 451 451 P____________P AL031890 22.37 -65.10 HU 105 3 22.50 -64.84 MH 105 14 307
1890 NA NA 18:00:00 TS 22.87 -65.63 105 hurdat_atl 503 503 O____________O hurdat_atl AL031890 22.80 -65.70 HU 105 3 23.00 -65.50 MH 105 15 311
1890 NA NA 21:00:00 TS 23.38 -66.23 559 553 P____________P AL031890 23.33 -66.31 HU 102 3 23.50 -66.06 MH 102 16 313
1890 NA NA 1890-08-29 00:00:00 TS 23.93 -66.87 100 hurdat_atl 570 570 O____________O hurdat_atl AL031890 23.90 -66.90 HU 100 3 24.00 -66.80 MH 100 17 309
1890 NA NA 03:00:00 TS 24.46 -67.66 596 592 P____________P AL031890 24.45 -67.46 HU 97 3 24.47 -68.07 MH 110 18 307
1890 NA NA 06:00:00 TS 25.00 -68.43 95 hurdat_atl 623 620 O____________O hurdat_atl AL031890 25.00 -68.00 HU 95 2 25.00 -69.30 MH 120 948 17 312
1890 NA NA 09:00:00 TS 25.60 -69.06 632 632 P____________P AL031890 25.55 -68.59 HU 92 2 25.71 -70.00 MH 120 15 321
1890 NA NA 12:00:00 TS 26.20 -69.50 90 hurdat_atl 662 662 O____________O hurdat_atl AL031890 26.10 -69.10 HU 90 2 26.40 -70.30 MH 120 13 331
1890 NA NA 15:00:00 TS 26.73 -69.75 695 695 P____________P AL031890 26.65 -69.48 HU 87 2 26.89 -70.31 MH 120 11 344
1890 NA NA 18:00:00 TS 27.23 -69.83 85 hurdat_atl 744 744 O____________O hurdat_atl AL031890 27.20 -69.70 HU 85 2 27.30 -70.10 MH 120 10 355
1890 NA NA 21:00:00 TS 27.74 -69.85 795 795 P____________P AL031890 27.75 -69.81 HU 85 2 27.73 -69.92 MH 120 10 3
1890 NA NA 1890-08-30 00:00:00 TS 28.27 -69.77 85 hurdat_atl 856 856 O____________O hurdat_atl AL031890 28.30 -69.80 HU 85 2 28.20 -69.70 MH 120 11 9
1890 NA NA 03:00:00 TS 28.81 -69.65 915 892 P____________P AL031890 28.85 -69.74 HU 85 2 28.74 -69.47 MH 117 11 13
1890 NA NA 06:00:00 TS 29.37 -69.47 85 hurdat_atl 884 860 O____________O hurdat_atl AL031890 29.40 -69.60 HU 85 2 29.30 -69.20 MH 115 11 18
1890 NA NA 09:00:00 TS 29.90 -69.25 860 845 P____________P AL031890 29.94 -69.44 HU 85 2 29.81 -68.87 MH 112 12 22
1890 NA NA 12:00:00 TS 30.43 -68.97 85 hurdat_atl 846 833 O____________O hurdat_atl AL031890 30.50 -69.20 HU 85 2 30.30 -68.50 MH 110 12 27
1890 NA NA 15:00:00 TS 30.99 -68.61 833 825 P____________P AL031890 31.09 -68.87 HU 85 2 30.80 -68.09 MH 107 13 31
1890 NA NA 18:00:00 TS 31.57 -68.17 85 hurdat_atl 820 820 O____________O hurdat_atl AL031890 31.70 -68.40 HU 85 2 31.30 -67.70 MH 105 14 35
1890 NA NA 21:00:00 TS 32.11 -67.68 827 827 P____________P AL031890 32.27 -67.82 HU 85 2 31.80 -67.40 MH 102 15 39
1890 NA NA 1890-08-31 00:00:00 TS 32.70 -67.10 85 hurdat_atl 843 843 O____________O hurdat_atl AL031890 32.90 -67.10 HU 85 2 32.30 -67.10 MH 100 16 40
1890 NA NA 03:00:00 TS 33.33 -66.46 868 868 P____________P AL031890 33.65 -66.30 HU 85 2 32.71 -66.77 MH 97 18 40
1890 NA NA 06:00:00 TS 34.10 -65.70 85 hurdat_atl 910 872 O____________O hurdat_atl AL031890 34.50 -65.40 HU 85 2 33.30 -66.30 HU 95 21 39
1890 NA NA 09:00:00 TS 35.00 -64.85 871 818 P____________P AL031890 35.39 -64.45 HU 85 2 34.23 -65.65 HU 95 25 37
1890 NA NA 12:00:00 TS 36.10 -63.83 85 hurdat_atl 821 723 O____________O hurdat_atl AL031890 36.40 -63.40 HU 85 2 35.50 -64.70 HU 95 29 37
1890 NA NA 15:00:00 TS 37.35 -62.65 713 625 P____________P AL031890 37.53 -62.24 HU 85 2 36.99 -63.47 HU 95 34 37
1890 NA NA 18:00:00 TS 38.77 -61.27 85 hurdat_atl 620 557 O____________O hurdat_atl AL031890 38.80 -61.00 HU 85 2 38.70 -61.80 HU 95 37 38
1890 NA NA 21:00:00 TS 40.28 -59.66 550 453 P____________P AL031890 40.16 -59.74 HU 85 2 40.53 -59.51 HU 95 40 39
1890 NA NA 1890-09-01 00:00:00 TS 41.83 -57.97 85 hurdat_atl 452 399 O____________O hurdat_atl AL031890 41.60 -58.40 HU 85 2 42.30 -57.10 HU 95 968 39 39
1890 NA NA 03:00:00 TS 43.32 -56.38 392 233 P____________P AL031890 43.06 -56.94 HU 82 1 43.84 -55.25 HU 87 37 38
1890 NA NA 06:00:00 TS 44.73 -54.80 80 hurdat_atl 230 67 O____________O hurdat_atl AL031890 44.50 -55.40 HU 80 1 45.20 -53.60 HU 80 36 40
1890 NA NA 09:00:00 TS 46.07 -53.16 55 37 P____________P AL031890 45.88 -53.84 HU 75 1 46.45 -51.79 HU 75 34 42
1890 NA NA 12:00:00 TS 47.30 -51.47 70 hurdat_atl 85 85 O____________O hurdat_atl AL031890 47.20 -52.20 HU 70 1 47.50 -50.00 HU 70 33 46
1890 NA NA 15:00:00 TS 48.39 -49.63 238 238 P____________P AL031890 48.46 -50.39 HU 65 1 48.24 -48.11 HU 65 33 48
1890 NA NA 18:00:00 TS 49.50 -47.83 60 hurdat_atl 393 393 O____________O hurdat_atl AL031890 49.70 -48.50 TS 60 0 49.10 -46.50 TS 60 33 42
1890 NA NA 21:00:00 TS 50.83 -46.23 544 544 P____________P AL031890 50.95 -46.56 TS 55 0 50.58 -45.57 TS 55 34 37
1890 NA NA 1890-09-02 00:00:00 ET 52.20 -44.60 50 hurdat_atl 700 700 O____________O hurdat_atl AL031890 52.20 -44.60 EX 50 -4 52.20 -44.60 EX 50 34 40
1890 NA NA 03:00:00 ET 53.42 -42.62 740 635 P____________P AL031890 53.41 -42.57 EX 50 -4 53.46 -42.73 EX 50 34 45
1890 NA NA 06:00:00 ET 54.60 -40.60 50 hurdat_atl 626 538 O____________O hurdat_atl AL031890 54.60 -40.60 EX 50 -4 54.60 -40.60 EX 50 33 43
1890 NA NA 09:00:00 ET 55.85 -38.74 541 491 P____________P AL031890 55.85 -38.74 EX 50 -4 55.85 -38.74 EX 50 31 40
1890 NA NA 12:00:00 ET 57.00 -37.00 50 hurdat_atl 491 487 O____________O hurdat_atl AL031890 57.00 -37.00 EX 50 -4 57.00 -37.00 EX 50 28 42
1890 NA NA 15:00:00 ET 57.90 -35.34 505 505 P____________P AL031890 57.91 -35.34 EX 50 -4 57.89 -35.34 EX 50 24 45
1890 NA NA 18:00:00 ET 58.70 -33.80 50 hurdat_atl 545 545 O____________O hurdat_atl AL031890 58.70 -33.80 EX 50 -4 58.70 -33.80 EX 50 23 44
1890 NA NA 21:00:00 ET 59.57 -32.26 583 573 P____________P AL031890 59.54 -32.26 EX 50 -4 59.65 -32.26 EX 50 22 42
1890 NA NA 1890-09-03 00:00:00 ET 60.37 -30.80 50 hurdat_atl 561 465 O____________O hurdat_atl AL031890 60.30 -30.80 EX 50 -4 60.50 -30.80 EX 50 20 45
1890 NA NA 03:00:00 ET 60.98 -29.40 461 377 P____________P AL031890 60.94 -29.40 EX 47 -4 61.06 -29.40 EX 47 17 49
1890 NA NA 06:00:00 ET 61.50 -28.10 45 hurdat_atl 373 290 O____________O hurdat_atl AL031890 61.50 -28.10 EX 45 -4 61.50 -28.10 EX 45 16 50
1890 NA NA 09:00:00 ET 62.00 -26.85 286 207 P____________P AL031890 62.01 -26.85 EX 45 -4 61.98 -26.85 EX 45 15 50
1890 NA NA 12:00:00 ET 62.50 -25.60 45 hurdat_atl 203 O____________O hurdat_atl AL031890 62.50 -25.60 EX 45 -4 62.50 -25.60 EX 45 15 49